createdAt,value
2018-12-19T00:00:16.070Z,14.33
2018-12-19T00:02:43.474Z,15.50
2018-12-19T00:05:10.877Z,13.57
2018-12-19T00:07:38.267Z,15.43
2018-12-19T00:10:05.716Z,12.50
2018-12-19T00:12:33.113Z,13.53
2018-12-19T00:15:00.496Z,12.60
2018-12-19T00:17:27.902Z,11.33
2018-12-19T00:19:55.311Z,11.50
2018-12-19T00:22:22.790Z,11.93
2018-12-19T00:24:50.201Z,11.50
2018-12-19T00:27:17.588Z,10.73
2018-12-19T00:29:44.977Z,11.40
2018-12-19T00:32:12.366Z,10.40
2018-12-19T00:34:39.763Z,10.90
2018-12-19T00:37:07.418Z,11.00
2018-12-19T00:39:34.833Z,10.47
2018-12-19T00:42:02.217Z,10.90
2018-12-19T00:44:29.636Z,10.03
2018-12-19T00:46:57.027Z,9.60
2018-12-19T00:49:24.442Z,11.30
2018-12-19T00:51:51.848Z,11.27
2018-12-19T00:54:19.261Z,12.17
2018-12-19T00:56:46.774Z,10.60
2018-12-19T00:59:14.230Z,11.60
2018-12-19T01:01:41.643Z,11.33
2018-12-19T01:04:09.018Z,12.10
2018-12-19T01:06:36.461Z,11.43
2018-12-19T01:09:06.049Z,13.23
2018-12-19T01:11:33.440Z,13.60
2018-12-19T01:14:00.844Z,13.77
2018-12-19T01:16:28.326Z,14.47
2018-12-19T01:18:55.714Z,16.90
2018-12-19T01:21:23.097Z,16.27
2018-12-19T01:23:50.472Z,15.37
2018-12-19T01:26:17.881Z,16.53
2018-12-19T01:28:45.275Z,17.80
2018-12-19T01:31:12.706Z,18.33
2018-12-19T01:33:40.094Z,17.37
2018-12-19T01:36:07.533Z,18.00
2018-12-19T01:38:35.030Z,15.63
2018-12-19T01:41:02.414Z,16.90
2018-12-19T01:43:29.834Z,18.90
2018-12-19T01:45:57.308Z,19.07
2018-12-19T01:48:24.694Z,17.07
2018-12-19T01:50:52.114Z,16.90
2018-12-19T01:53:19.542Z,17.77
2018-12-19T01:55:47.482Z,20.80
2018-12-19T01:58:14.885Z,18.90
2018-12-19T02:00:42.344Z,17.17
2018-12-19T02:03:09.825Z,17.00
2018-12-19T02:05:37.225Z,18.20
2018-12-19T02:08:04.626Z,20.60
2018-12-19T02:10:32.023Z,16.80
2018-12-19T02:12:59.514Z,16.40
2018-12-19T02:15:26.922Z,16.77
2018-12-19T02:17:54.301Z,17.30
2018-12-19T02:20:22.001Z,17.40
2018-12-19T02:22:49.385Z,15.97
2018-12-19T02:25:16.780Z,16.73
2018-12-19T02:27:44.177Z,17.80
2018-12-19T02:30:11.571Z,17.90
2018-12-19T02:32:39.038Z,16.77
2018-12-19T02:35:06.552Z,17.20
2018-12-19T02:37:33.957Z,16.83
2018-12-19T02:40:01.358Z,17.77
2018-12-19T02:42:28.753Z,19.20
2018-12-19T02:44:56.155Z,17.00
2018-12-19T02:47:23.656Z,18.57
2018-12-19T02:49:51.124Z,19.67
2018-12-19T02:52:18.512Z,17.67
2018-12-19T02:54:45.925Z,17.23
2018-12-19T02:57:13.326Z,17.50
2018-12-19T02:59:40.827Z,17.23
2018-12-19T03:02:08.311Z,18.70
2018-12-19T03:04:35.774Z,17.43
2018-12-19T03:07:03.170Z,20.00
2018-12-19T03:09:30.563Z,18.33
2018-12-19T03:11:58.078Z,18.03
2018-12-19T03:14:25.471Z,19.00
2018-12-19T03:16:52.846Z,16.90
2018-12-19T03:19:20.255Z,19.20
2018-12-19T03:21:47.668Z,17.40
2018-12-19T03:24:15.136Z,19.90
2018-12-19T03:26:42.517Z,20.10
2018-12-19T03:29:09.976Z,17.90
2018-12-19T03:31:37.368Z,18.03
2018-12-19T03:34:04.756Z,18.90
2018-12-19T03:36:32.217Z,20.83
2018-12-19T03:38:59.625Z,18.50
2018-12-19T03:41:27.365Z,19.80
2018-12-19T03:43:54.746Z,17.00
2018-12-19T03:46:22.141Z,20.10
2018-12-19T03:48:55.066Z,19.17
2018-12-19T03:51:22.469Z,22.23
2018-12-19T03:53:49.918Z,19.60
2018-12-19T03:56:17.317Z,20.97
2018-12-19T03:58:44.716Z,21.30
2018-12-19T04:01:12.099Z,21.77
2018-12-19T04:03:39.577Z,21.10
2018-12-19T04:06:06.966Z,19.43
2018-12-19T04:08:34.397Z,18.40
2018-12-19T04:11:01.959Z,19.73
2018-12-19T04:13:29.341Z,18.47
2018-12-19T04:15:56.733Z,21.83
2018-12-19T04:18:24.136Z,20.50
2018-12-19T04:20:51.525Z,20.57
2018-12-19T04:23:18.928Z,18.10
2018-12-19T04:25:47.954Z,19.00
2018-12-19T04:28:15.436Z,20.33
2018-12-19T04:30:42.820Z,19.27
2018-12-19T04:33:10.467Z,19.53
2018-12-19T04:35:38.588Z,19.60
2018-12-19T04:38:06.046Z,18.70
2018-12-19T04:40:33.443Z,18.70
2018-12-19T04:43:00.835Z,18.87
2018-12-19T04:45:28.220Z,17.47
2018-12-19T04:47:55.629Z,17.60
2018-12-19T04:50:23.119Z,18.37
2018-12-19T04:52:50.529Z,20.60
2018-12-19T04:55:17.957Z,20.40
2018-12-19T04:57:45.388Z,20.50
2018-12-19T05:00:12.793Z,22.17
2018-12-19T05:02:40.281Z,19.00
2018-12-19T05:05:07.665Z,19.77
2018-12-19T05:07:35.133Z,19.93
2018-12-19T05:10:02.794Z,17.60
2018-12-19T05:12:30.266Z,18.87
2018-12-19T05:14:57.677Z,19.00
2018-12-19T05:17:25.096Z,19.17
2018-12-19T05:19:52.870Z,19.93
2018-12-19T05:22:20.257Z,18.30
2018-12-19T05:24:47.657Z,17.57
2018-12-19T05:27:15.059Z,16.67
2018-12-19T05:29:42.445Z,18.30
2018-12-19T05:32:09.837Z,18.40
2018-12-19T05:34:37.230Z,19.90
2018-12-19T05:37:04.667Z,19.17
2018-12-19T05:39:32.056Z,18.83
2018-12-19T05:41:59.439Z,18.37
2018-12-19T05:44:26.833Z,19.90
2018-12-19T05:46:54.220Z,19.40
2018-12-19T05:49:21.613Z,18.33
2018-12-19T05:51:48.992Z,18.20
2018-12-19T05:54:16.385Z,16.10
2018-12-19T05:56:43.786Z,17.53
2018-12-19T05:59:11.722Z,17.00
2018-12-19T06:01:39.109Z,16.67
2018-12-19T06:04:06.538Z,14.90
2018-12-19T06:06:33.983Z,15.83
2018-12-19T06:09:01.377Z,14.83
2018-12-19T06:11:28.852Z,13.73
2018-12-19T06:13:56.277Z,13.90
2018-12-19T06:16:23.680Z,16.47
2018-12-19T06:18:51.063Z,12.40
2018-12-19T06:21:18.468Z,13.50
2018-12-19T06:23:45.866Z,14.57
2018-12-19T06:26:13.275Z,14.73
2018-12-19T06:28:40.650Z,14.50
2018-12-19T06:31:08.149Z,14.00
2018-12-19T06:33:36.305Z,13.33
2018-12-19T06:36:03.715Z,14.47
2018-12-19T06:38:31.114Z,15.20
2018-12-19T06:40:58.582Z,17.30
2018-12-19T06:43:25.973Z,17.77
2018-12-19T06:45:53.357Z,16.63
2018-12-19T06:48:20.773Z,17.80
2018-12-19T06:50:48.145Z,19.07
2018-12-19T06:53:15.530Z,19.20
2018-12-19T06:55:42.921Z,16.93
2018-12-19T06:58:10.302Z,16.30
2018-12-19T07:00:37.696Z,11.77
2018-12-19T07:03:05.157Z,13.93
2018-12-19T07:05:32.582Z,11.03
2018-12-19T07:07:59.949Z,9.10
2018-12-19T07:10:27.345Z,9.80
2018-12-19T07:12:54.758Z,9.13
2018-12-19T07:15:22.238Z,9.23
2018-12-19T07:17:49.677Z,8.83
2018-12-19T07:20:17.074Z,8.17
2018-12-19T07:22:44.474Z,8.10
2018-12-19T07:25:11.863Z,8.80
2018-12-19T07:27:39.327Z,9.63
2018-12-19T07:30:07.740Z,11.00
2018-12-19T07:32:35.137Z,10.37
2018-12-19T07:35:02.563Z,12.83
2018-12-19T07:37:30.054Z,17.77
2018-12-19T07:39:57.514Z,15.47
2018-12-19T07:42:24.924Z,17.23
2018-12-19T07:44:52.311Z,17.20
2018-12-19T07:47:19.699Z,18.67
2018-12-19T07:49:47.210Z,17.63
2018-12-19T07:52:14.678Z,17.57
2018-12-19T07:54:42.067Z,15.43
2018-12-19T07:57:09.468Z,15.67
2018-12-19T07:59:36.866Z,15.73
2018-12-19T08:02:04.313Z,20.27
2018-12-19T08:04:32.082Z,17.40
2018-12-19T08:06:59.501Z,18.33
2018-12-19T08:09:26.998Z,15.30
2018-12-19T08:11:54.379Z,16.97
2018-12-19T08:14:21.781Z,16.53
2018-12-19T08:16:49.201Z,16.13
2018-12-19T08:19:16.682Z,16.50
2018-12-19T08:21:44.082Z,16.80
2018-12-19T08:24:11.508Z,15.87
2018-12-19T08:26:38.900Z,15.97
2018-12-19T08:29:06.309Z,18.03
2018-12-19T08:31:33.785Z,15.83
2018-12-19T08:34:01.247Z,17.50
2018-12-19T08:36:28.658Z,16.27
2018-12-19T08:38:56.070Z,15.70
2018-12-19T08:41:23.453Z,13.57
2018-12-19T08:43:50.852Z,13.40
2018-12-19T08:46:18.247Z,11.00
2018-12-19T08:48:45.675Z,13.70
2018-12-19T08:51:13.150Z,12.17
2018-12-19T08:53:40.560Z,10.97
2018-12-19T08:56:07.976Z,11.43
2018-12-19T08:58:35.380Z,11.20
2018-12-19T09:01:02.793Z,11.83
2018-12-19T09:03:30.200Z,12.43
2018-12-19T09:05:57.589Z,10.87
2018-12-19T09:08:24.987Z,11.23
2018-12-19T09:10:52.476Z,12.47
2018-12-19T09:13:19.887Z,10.10
2018-12-19T09:15:50.094Z,13.77
2018-12-19T09:18:18.201Z,12.83
2018-12-19T09:20:46.502Z,10.40
2018-12-19T09:23:14.301Z,12.13
2018-12-19T09:25:41.706Z,12.83
2018-12-19T09:28:09.249Z,12.90
2018-12-19T09:30:36.624Z,11.37
2018-12-19T09:33:04.048Z,11.13
2018-12-19T09:35:31.442Z,12.83
2018-12-19T09:37:58.847Z,10.53
2018-12-19T09:40:26.248Z,12.37
2018-12-19T09:42:53.750Z,12.90
2018-12-19T09:45:21.165Z,12.00
2018-12-19T09:47:48.646Z,12.70
2018-12-19T09:50:16.076Z,12.13
2018-12-19T09:52:43.539Z,13.60
2018-12-19T09:55:10.937Z,12.03
2018-12-19T09:57:38.695Z,11.07
2018-12-19T10:00:10.560Z,11.97
2018-12-19T10:02:37.961Z,11.83
2018-12-19T10:05:05.348Z,16.23
2018-12-19T10:07:32.816Z,18.03
2018-12-19T10:10:00.233Z,14.23
2018-12-19T10:12:27.626Z,12.70
2018-12-19T10:14:55.039Z,12.90
2018-12-19T10:17:22.437Z,11.57
2018-12-19T10:19:49.837Z,13.60
2018-12-19T10:31:30.658Z,11.43
2018-12-19T10:33:58.057Z,12.00
2018-12-19T10:36:31.166Z,11.53
2018-12-19T10:38:58.585Z,10.70
2018-12-19T10:41:26.055Z,10.10
2018-12-19T10:43:53.439Z,11.93
2018-12-19T10:46:20.853Z,10.77
2018-12-19T10:48:48.237Z,9.83
2018-12-19T10:51:15.998Z,12.20
2018-12-19T10:53:43.409Z,10.00
2018-12-19T10:56:10.874Z,12.53
2018-12-19T10:58:38.269Z,10.50
2018-12-19T11:01:06.830Z,10.33
2018-12-19T11:03:34.221Z,10.53
2018-12-19T11:06:01.622Z,9.97
2018-12-19T11:08:29.041Z,9.90
2018-12-19T11:10:56.438Z,11.60
2018-12-19T11:13:23.934Z,10.10
2018-12-19T11:15:51.807Z,9.53
2018-12-19T11:18:19.199Z,10.30
2018-12-19T11:20:46.654Z,9.90
2018-12-19T11:23:14.061Z,11.43
2018-12-19T11:25:41.473Z,9.20
2018-12-19T11:28:08.829Z,9.87
2018-12-19T11:30:36.230Z,9.43
2018-12-19T11:33:03.640Z,8.77
2018-12-19T11:35:31.035Z,9.47
2018-12-19T11:37:58.402Z,12.40
2018-12-19T11:40:25.821Z,10.20
2018-12-19T11:42:53.250Z,10.33
2018-12-19T11:45:20.617Z,8.83
2018-12-19T11:47:48.025Z,11.47
2018-12-19T11:50:15.398Z,10.93
2018-12-19T11:52:42.808Z,11.80
2018-12-19T11:55:10.205Z,10.80
2018-12-19T11:57:37.651Z,11.07
2018-12-19T12:00:07.132Z,11.33
2018-12-19T12:02:34.530Z,11.17
2018-12-19T12:05:02.030Z,13.07
2018-12-19T12:07:29.434Z,10.57
2018-12-19T12:09:56.853Z,11.90
2018-12-19T12:12:24.256Z,10.90
2018-12-19T12:14:51.685Z,11.67
2018-12-19T12:17:19.206Z,11.97
2018-12-19T12:19:46.624Z,10.67
2018-12-19T12:22:14.021Z,9.63
2018-12-19T12:24:41.508Z,16.17
2018-12-19T12:27:08.901Z,14.87
2018-12-19T12:29:36.308Z,15.97
2018-12-19T12:32:03.788Z,15.07
2018-12-19T12:34:31.158Z,16.17
2018-12-19T12:36:58.621Z,15.73
2018-12-19T12:39:26.116Z,17.77
2018-12-19T12:41:53.525Z,17.47
2018-12-19T12:44:21.005Z,15.97
2018-12-19T12:46:48.424Z,15.17
2018-12-19T12:49:15.825Z,16.40
2018-12-19T12:51:43.255Z,18.10
2018-12-19T12:54:10.798Z,17.97
2018-12-19T12:56:38.184Z,15.90
2018-12-19T12:59:05.592Z,16.60
2018-12-19T13:01:33.390Z,16.03
2018-12-19T13:04:00.932Z,16.13
2018-12-19T13:06:28.357Z,19.33
2018-12-19T13:08:55.845Z,17.70
2018-12-19T13:11:23.253Z,17.40
2018-12-19T13:13:50.661Z,18.63
2018-12-19T13:16:18.064Z,17.07
2018-12-19T13:18:45.571Z,17.00
2018-12-19T13:21:12.942Z,17.23
2018-12-19T13:23:40.377Z,16.47
2018-12-19T13:26:07.764Z,15.73
2018-12-19T13:28:35.184Z,14.87
2018-12-19T13:31:02.592Z,16.10
2018-12-19T13:33:30.005Z,15.83
2018-12-19T13:35:57.417Z,14.93
2018-12-19T13:38:24.897Z,13.77
2018-12-19T13:40:52.300Z,14.87
2018-12-19T13:43:19.740Z,14.80
2018-12-19T13:45:47.270Z,16.53
2018-12-19T13:48:15.086Z,15.87
2018-12-19T13:50:42.502Z,15.03
2018-12-19T13:53:09.925Z,15.20
2018-12-19T13:55:37.348Z,13.57
2018-12-19T13:58:07.125Z,14.60
2018-12-19T14:00:34.153Z,12.70
2018-12-19T14:03:01.568Z,12.60
2018-12-19T14:05:28.988Z,11.80
2018-12-19T14:07:56.419Z,11.03
2018-12-19T14:10:23.821Z,10.40
2018-12-19T14:12:51.230Z,11.60
2018-12-19T14:15:18.641Z,10.87
2018-12-19T14:17:46.051Z,13.00
2018-12-19T14:20:13.459Z,11.30
2018-12-19T14:22:40.875Z,10.70
2018-12-19T14:25:08.339Z,13.67
2018-12-19T14:27:36.826Z,15.93
2018-12-19T14:30:07.683Z,16.80
2018-12-19T14:32:38.019Z,15.97
2018-12-19T14:35:05.594Z,15.03
2018-12-19T14:37:32.997Z,15.47
2018-12-19T14:40:00.424Z,15.97
2018-12-19T14:42:27.826Z,14.20
2018-12-19T14:44:55.397Z,15.43
2018-12-19T14:47:22.800Z,15.93
2018-12-19T14:49:50.210Z,14.67
2018-12-19T14:52:17.677Z,15.70
2018-12-19T14:54:45.074Z,15.47
2018-12-19T14:57:15.273Z,16.17
2018-12-19T14:59:44.896Z,13.70
2018-12-19T15:02:12.394Z,14.40
2018-12-19T15:04:39.837Z,14.97
2018-12-19T15:07:07.239Z,14.87
2018-12-19T15:09:34.662Z,15.27
2018-12-19T15:12:02.054Z,15.03
2018-12-19T15:14:29.470Z,14.43
2018-12-19T15:16:57.045Z,14.90
2018-12-19T15:19:24.499Z,16.20
2018-12-19T15:21:51.913Z,15.80
2018-12-19T15:24:19.324Z,13.83
2018-12-19T15:26:46.729Z,15.20
2018-12-19T15:29:14.137Z,15.23
2018-12-19T15:31:41.582Z,15.07
2018-12-19T15:34:09.337Z,16.63
2018-12-19T15:36:40.479Z,15.97
2018-12-19T15:39:07.942Z,15.40
2018-12-19T15:41:35.397Z,18.37
2018-12-19T15:44:02.795Z,18.97
2018-12-19T15:46:32.852Z,19.77
2018-12-19T15:49:00.268Z,16.80
2018-12-19T15:51:27.682Z,17.37
2018-12-19T15:53:55.093Z,17.80
2018-12-19T15:56:22.572Z,16.43
2018-12-19T15:58:49.964Z,16.43
2018-12-19T16:01:17.423Z,18.67
2018-12-19T16:03:44.807Z,19.00
2018-12-19T16:06:12.283Z,20.67
2018-12-19T16:08:39.705Z,17.10
2018-12-19T16:11:07.126Z,18.07
2018-12-19T16:13:34.686Z,17.50
2018-12-19T16:16:02.342Z,19.27
2018-12-19T16:18:29.799Z,19.33
2018-12-19T16:20:57.251Z,26.17
2018-12-19T16:23:24.702Z,18.53
2018-12-19T16:25:52.093Z,17.83
2018-12-19T16:28:19.598Z,12.37
2018-12-19T16:30:46.998Z,12.03
2018-12-19T16:33:14.401Z,11.97
2018-12-19T16:35:41.835Z,13.67
2018-12-19T16:38:09.215Z,12.60
2018-12-19T16:40:36.645Z,14.33
2018-12-19T16:43:04.045Z,12.90
2018-12-19T16:45:31.485Z,12.30
2018-12-19T16:47:58.900Z,12.60
2018-12-19T16:50:26.297Z,14.87
2018-12-19T16:52:53.737Z,16.53
2018-12-19T16:55:21.146Z,18.70
2018-12-19T16:57:48.556Z,24.00
2018-12-19T17:00:15.980Z,24.00
2018-12-19T17:02:43.494Z,20.20
2018-12-19T17:05:10.888Z,21.17
2018-12-19T17:07:38.435Z,21.23
2018-12-19T17:10:06.183Z,20.47
2018-12-19T17:12:33.573Z,22.70
2018-12-19T17:15:01.002Z,22.57
2018-12-19T17:17:28.516Z,19.47
2018-12-19T17:19:56.017Z,18.87
2018-12-19T17:22:23.441Z,17.13
2018-12-19T17:24:50.887Z,16.23
2018-12-19T17:27:18.293Z,15.53
2018-12-19T17:29:45.740Z,15.67
2018-12-19T17:32:13.330Z,16.40
2018-12-19T17:34:40.731Z,16.13
2018-12-19T17:37:08.166Z,17.20
2018-12-19T17:39:35.577Z,17.73
2018-12-19T17:42:02.973Z,16.67
2018-12-19T17:44:30.448Z,16.20
2018-12-19T17:46:58.587Z,16.57
2018-12-19T17:49:26.073Z,16.27
2018-12-19T17:51:53.558Z,16.50
2018-12-19T17:54:21.573Z,15.57
2018-12-19T17:56:49.018Z,14.83
2018-12-19T17:59:16.420Z,16.07
2018-12-19T18:01:43.852Z,16.93
2018-12-19T18:04:11.482Z,18.00
2018-12-19T18:06:39.251Z,16.97
2018-12-19T18:09:06.681Z,19.57
2018-12-19T18:11:34.133Z,19.00
2018-12-19T18:14:02.021Z,23.40
2018-12-19T18:16:29.405Z,32.60
2018-12-19T18:18:56.806Z,32.50
2018-12-19T18:21:24.233Z,18.47
2018-12-19T18:23:51.661Z,16.90
2018-12-19T18:26:19.095Z,18.60
2018-12-19T18:28:46.513Z,21.63
2018-12-19T18:31:14.004Z,16.90
2018-12-19T18:33:42.199Z,17.87
2018-12-19T18:36:09.596Z,16.07
2018-12-19T18:38:36.996Z,16.97
2018-12-19T18:41:04.398Z,17.80
2018-12-19T18:43:31.825Z,19.60
2018-12-19T18:45:59.304Z,16.47
2018-12-19T18:48:26.802Z,16.10
2018-12-19T18:50:54.197Z,16.90
2018-12-19T18:53:21.626Z,16.70
2018-12-19T18:55:49.024Z,17.27
2018-12-19T18:58:17.155Z,19.30
2018-12-19T19:00:47.197Z,19.47
2018-12-19T19:03:15.239Z,18.37
2018-12-19T19:05:42.777Z,19.33
2018-12-19T19:08:10.244Z,17.37
2018-12-19T19:10:37.779Z,17.53
2018-12-19T19:13:05.236Z,16.90
2018-12-19T19:15:32.648Z,19.10
2018-12-19T19:18:00.414Z,17.00
2018-12-19T19:20:27.833Z,22.73
2018-12-19T19:22:55.249Z,16.50
2018-12-19T19:25:22.734Z,16.80
2018-12-19T19:27:50.143Z,15.73
2018-12-19T19:30:17.576Z,15.10
2018-12-19T19:32:45.813Z,16.67
2018-12-19T19:35:13.205Z,17.27
2018-12-19T19:37:40.611Z,16.20
2018-12-19T19:40:09.162Z,17.87
2018-12-19T19:42:36.594Z,16.97
2018-12-19T19:45:05.405Z,17.53
2018-12-19T19:47:32.844Z,16.80
2018-12-19T19:50:00.357Z,19.93
2018-12-19T19:52:27.772Z,19.90
2018-12-19T19:54:55.176Z,17.80
2018-12-19T19:57:22.603Z,19.60
2018-12-19T19:59:50.024Z,19.27
2018-12-19T20:02:17.425Z,22.33
2018-12-19T20:04:44.848Z,20.93
2018-12-19T20:07:12.294Z,19.33
2018-12-19T20:09:39.778Z,20.30
2018-12-19T20:12:07.262Z,19.10
2018-12-19T20:14:34.691Z,18.87
2018-12-19T20:17:02.349Z,19.20
2018-12-19T20:19:29.790Z,20.30
2018-12-19T20:21:57.192Z,21.53
2018-12-19T20:24:24.924Z,20.57
2018-12-19T20:26:52.355Z,22.70
2018-12-19T20:29:19.755Z,20.53
2018-12-19T20:31:47.316Z,20.77
2018-12-19T20:34:14.761Z,21.77
2018-12-19T20:36:42.131Z,21.13
2018-12-19T20:39:09.604Z,19.37
2018-12-19T20:41:37.042Z,19.93
2018-12-19T20:44:04.461Z,21.17
2018-12-19T20:46:31.899Z,19.93
2018-12-19T20:48:59.315Z,22.50
2018-12-19T20:51:26.751Z,20.63
2018-12-19T20:53:54.153Z,21.07
2018-12-19T20:56:21.720Z,21.53
2018-12-19T20:58:49.301Z,23.47
2018-12-19T21:01:16.763Z,18.67
2018-12-19T21:03:45.321Z,19.83
2018-12-19T21:06:12.830Z,20.57
2018-12-19T21:08:40.285Z,19.20
2018-12-19T21:11:07.714Z,19.43
2018-12-19T21:13:35.499Z,18.30
2018-12-19T21:16:02.892Z,17.33
2018-12-19T21:18:35.980Z,18.10
2018-12-19T21:21:03.414Z,21.10
2018-12-19T21:23:33.345Z,17.60
2018-12-19T21:26:01.542Z,16.63
2018-12-19T21:28:29.066Z,17.87
2018-12-19T21:30:56.678Z,17.27
2018-12-19T21:33:24.169Z,17.60
2018-12-19T21:35:51.590Z,15.67
2018-12-19T21:38:19.037Z,16.53
2018-12-19T21:40:46.536Z,14.80
2018-12-19T21:43:13.987Z,16.03
2018-12-19T21:45:41.506Z,16.10
2018-12-19T21:48:08.934Z,15.23
2018-12-19T21:50:36.379Z,15.37
2018-12-19T21:53:03.895Z,14.00
2018-12-19T21:55:31.395Z,16.03
2018-12-19T21:57:58.838Z,14.40
2018-12-19T22:00:27.575Z,16.00
2018-12-19T22:02:55.103Z,13.27
2018-12-19T22:05:22.628Z,13.03
2018-12-19T22:07:50.121Z,11.93
2018-12-19T22:10:17.524Z,12.57
2018-12-19T22:12:44.968Z,12.30
2018-12-19T22:15:12.478Z,13.30
2018-12-19T22:17:45.628Z,11.80
2018-12-19T22:20:13.116Z,12.00
2018-12-19T22:22:40.571Z,11.57
2018-12-19T22:25:07.969Z,11.90
2018-12-19T22:27:47.210Z,11.37
2018-12-19T22:30:14.802Z,11.40
2018-12-19T22:32:42.371Z,10.80
2018-12-19T22:35:09.849Z,10.90
2018-12-19T22:37:37.264Z,10.47
2018-12-19T22:40:07.435Z,10.33
2018-12-19T22:42:41.660Z,10.90
2018-12-19T22:45:09.196Z,11.33
2018-12-19T22:47:36.672Z,10.60
2018-12-19T22:50:06.149Z,10.90
2018-12-19T22:52:33.605Z,11.90
2018-12-19T22:55:04.934Z,11.30
2018-12-19T22:57:37.941Z,12.77
2018-12-19T23:00:11.382Z,12.00
2018-12-19T23:02:46.678Z,11.87
2018-12-19T23:05:16.126Z,16.20
2018-12-19T23:07:43.548Z,11.10
2018-12-19T23:10:11.689Z,12.63
2018-12-19T23:12:40.283Z,12.67
2018-12-19T23:15:08.213Z,12.63
2018-12-19T23:17:39.586Z,14.00
2018-12-19T23:20:09.476Z,13.77
2018-12-19T23:22:36.990Z,14.87
2018-12-19T23:25:05.276Z,13.97
2018-12-19T23:27:32.869Z,17.47
2018-12-19T23:30:00.281Z,15.63
2018-12-19T23:32:28.698Z,16.13
2018-12-19T23:34:56.504Z,17.77
2018-12-19T23:37:24.103Z,16.90
2018-12-19T23:39:51.519Z,17.73
2018-12-19T23:42:19.051Z,17.23
2018-12-19T23:44:46.611Z,18.57
2018-12-19T23:47:14.034Z,18.97
2018-12-19T23:49:41.446Z,16.07
2018-12-19T23:52:08.980Z,16.97
2018-12-19T23:54:36.490Z,17.73
2018-12-19T23:57:04.014Z,19.00
2018-12-19T23:59:31.478Z,17.57
